Time;durP1;ratioP1;P1;durP2;ratioP2;P2;SDS_P1;SDS_P2;PMS_P1;PMS_P2;Temp;Humidity;BMP_temperature;BMP_pressure;BME280_temperature;BME280_humidity;BME280_pressure;Samples;Min_cycle;Max_cycle;Signal;HPM_P1;HPM_P2
2022/05/14 00:02:04;;;;;;;10.90;6.13;;;;;;;19.66;64.58;99284.41;5115333;28;20262;-66
2022/05/14 00:04:31;;;;;;;5.90;5.30;;;;;;;19.64;64.43;99281.19;5114517;28;20192;-64
2022/05/14 00:06:58;;;;;;;5.90;5.30;;;;;;;19.66;64.23;99284.41;5114460;28;20258;-64
2022/05/14 00:09:25;;;;;;;7.13;5.67;;;;;;;19.68;64.55;99283.06;5114725;28;20603;-65
2022/05/14 00:14:37;;;;;;;6.97;5.70;;;;;;;19.48;65.13;99279.44;5113953;28;20181;-65
2022/05/14 00:17:04;;;;;;;5.93;5.33;;;;;;;19.33;66.02;99277.44;5114579;27;20193;-65
2022/05/14 00:19:31;;;;;;;7.47;5.37;;;;;;;19.39;65.95;99276.41;5114578;28;20248;-65
2022/05/14 00:21:58;;;;;;;6.13;5.40;;;;;;;19.36;65.73;99268.84;5114108;28;20243;-65
2022/05/14 00:24:24;;;;;;;8.57;6.00;;;;;;;19.37;66.14;99275.03;5114099;28;20663;-65
2022/05/14 00:26:51;;;;;;;6.23;5.63;;;;;;;19.45;65.95;99279.94;5114396;28;20206;-68
2022/05/14 00:29:18;;;;;;;6.63;5.77;;;;;;;19.45;65.86;99275.34;5113997;28;20195;-65
2022/05/14 00:31:46;;;;;;;8.20;5.33;;;;;;;19.48;65.98;99274.06;5113980;28;20330;-65
2022/05/14 00:34:13;;;;;;;5.33;4.80;;;;;;;19.49;66.01;99278.38;5113935;28;20225;-65
2022/05/14 00:36:40;;;;;;;7.70;5.63;;;;;;;19.48;65.89;99272.16;5113916;28;20193;-65
2022/05/14 00:39:06;;;;;;;5.70;5.20;;;;;;;19.49;66.07;99281.06;5113841;28;20193;-65
2022/05/14 00:41:36;;;;;;;5.50;5.00;;;;;;;19.50;66.07;99274.59;5114028;28;20405;-65
2022/05/14 00:44:03;;;;;;;6.23;5.57;;;;;;;19.54;65.64;99267.63;5113764;28;20195;-65
2022/05/14 00:46:46;;;;;;;7.90;5.70;;;;;;;19.49;65.45;99262.19;5113713;27;20187;-64
2022/05/14 00:49:15;;;;;;;6.77;5.73;;;;;;;19.46;65.73;99276.19;5114083;28;20241;-64
2022/05/14 00:51:45;;;;;;;6.87;6.27;;;;;;;19.46;65.60;99270.78;5114384;28;20194;-64
2022/05/14 00:54:15;;;;;;;6.83;5.43;;;;;;;19.39;65.81;99270.19;5113569;28;20653;-64
2022/05/14 00:56:46;;;;;;;8.87;6.03;;;;;;;19.35;66.16;99274.47;5113799;28;20186;-64
2022/05/14 00:59:16;;;;;;;6.00;5.50;;;;;;;19.37;66.20;99275.03;5113772;28;20201;-64
2022/05/14 01:01:44;;;;;;;7.83;5.87;;;;;;;19.37;66.40;99272.34;5113583;28;20222;-65
2022/05/14 01:04:12;;;;;;;6.53;5.43;;;;;;;19.38;66.39;99273.97;5113838;28;20279;-65
2022/05/14 01:06:47;;;;;;;6.77;6.20;;;;;;;19.37;66.20;99280.44;5113591;28;20251;-65
2022/05/14 01:09:14;;;;;;;5.43;5.03;;;;;;;19.30;66.41;99277.13;5113248;28;20181;-64
2022/05/14 01:11:41;;;;;;;6.83;6.23;;;;;;;19.23;66.49;99276.50;5113231;28;20596;-64
2022/05/14 01:14:08;;;;;;;7.53;6.40;;;;;;;19.15;66.96;99275.09;5113436;28;20197;-65
2022/05/14 01:16:35;;;;;;;25.63;7.80;;;;;;;19.06;67.68;99273.94;5114009;28;20638;-64
2022/05/14 01:19:02;;;;;;;12.37;7.33;;;;;;;19.06;68.21;99271.25;5112962;28;20628;-64
2022/05/14 01:21:39;;;;;;;11.03;6.63;;;;;;;19.03;68.23;99271.75;5112959;28;20271;-65
2022/05/14 01:26:58;;;;;;;8.63;6.30;;;;;;;19.05;68.24;99274.19;5113405;28;20269;-65
2022/05/14 01:29:26;;;;;;;7.97;6.60;;;;;;;19.03;68.25;99276.34;5112872;28;20631;-64
2022/05/14 01:31:55;;;;;;;6.93;6.40;;;;;;;19.05;68.24;99276.88;5113491;28;20194;-65
2022/05/14 01:34:24;;;;;;;8.00;6.90;;;;;;;19.03;68.82;99276.34;5113095;28;20198;-64
2022/05/14 01:36:52;;;;;;;7.07;6.43;;;;;;;19.01;69.08;99273.09;5112823;28;20193;-64
2022/05/14 01:39:19;;;;;;;11.43;6.70;;;;;;;18.99;68.65;99259.06;5113029;28;20196;-64
2022/05/14 01:41:46;;;;;;;7.50;6.90;;;;;;;18.98;69.17;99263.63;5112953;28;20673;-65
2022/05/14 01:44:15;;;;;;;6.90;6.27;;;;;;;18.93;69.78;99262.78;5113012;27;20222;-64
2022/05/14 01:46:42;;;;;;;7.13;6.60;;;;;;;18.90;69.58;99261.41;5112922;28;20190;-65
2022/05/14 01:49:10;;;;;;;7.87;7.17;;;;;;;18.92;69.71;99264.69;5112770;28;20222;-64
2022/05/14 01:51:36;;;;;;;7.50;7.00;;;;;;;18.93;69.53;99274.38;5112889;28;20256;-64
2022/05/14 01:54:04;;;;;;;7.43;6.83;;;;;;;18.87;69.54;99261.13;5112861;28;20271;-64
2022/05/14 01:56:30;;;;;;;7.83;7.13;;;;;;;18.86;69.77;99264.84;5112473;28;20194;-65
2022/05/14 01:58:57;;;;;;;7.47;6.87;;;;;;;18.80;69.89;99271.25;5112459;28;20191;-64
2022/05/14 02:01:27;;;;;;;10.50;7.40;;;;;;;18.78;70.33;99273.41;5112318;28;20717;-64
2022/05/14 02:03:56;;;;;;;9.87;7.23;;;;;;;18.77;70.23;99266.38;5113337;28;20252;-64
2022/05/14 02:06:24;;;;;;;9.93;7.23;;;;;;;18.75;70.21;99269.31;5112680;28;20249;-64
2022/05/14 02:08:51;;;;;;;11.77;7.13;;;;;;;18.72;70.51;99269.03;5112318;28;20732;-64
2022/05/14 02:11:18;;;;;;;7.60;6.77;;;;;;;18.74;70.68;99266.91;5112342;28;20197;-64
2022/05/14 02:13:46;;;;;;;8.83;7.40;;;;;;;18.75;70.33;99268.53;5112588;28;20257;-64
2022/05/14 02:16:13;;;;;;;9.03;7.20;;;;;;;18.70;70.05;99273.88;5113109;28;20258;-65
2022/05/14 02:18:41;;;;;;;8.10;7.40;;;;;;;18.68;70.53;99267.91;5112182;28;20656;-65
2022/05/14 02:21:09;;;;;;;10.57;7.40;;;;;;;18.67;70.64;99266.28;5113044;28;20219;-65
2022/05/14 02:23:38;;;;;;;12.73;7.30;;;;;;;18.65;70.99;99266.53;5112100;28;20669;-65
2022/05/14 02:26:05;;;;;;;12.43;6.70;;;;;;;18.62;71.47;99272.41;5112122;28;20225;-64
2022/05/14 02:28:32;;;;;;;7.53;6.80;;;;;;;18.57;71.32;99261.63;5112119;28;20258;-65
2022/05/14 02:30:59;;;;;;;7.90;7.10;;;;;;;18.60;70.98;99265.69;5112116;28;20729;-64
2022/05/14 02:33:26;;;;;;;11.77;7.10;;;;;;;18.56;71.28;99270.75;5112144;28;20248;-64
2022/05/14 02:35:54;;;;;;;8.17;7.47;;;;;;;18.57;71.39;99266.16;5112664;28;20251;-64
2022/05/14 02:38:21;;;;;;;11.17;8.10;;;;;;;18.54;71.83;99266.69;5116169;28;20218;-64
2022/05/14 02:40:47;;;;;;;8.67;7.77;;;;;;;18.52;71.97;99275.03;5116075;28;20195;-65
2022/05/14 02:43:14;;;;;;;13.00;7.80;;;;;;;18.53;71.61;99265.88;5116138;28;20195;-65
2022/05/14 02:45:41;;;;;;;9.57;7.40;;;;;;;18.47;71.49;99264.22;5116339;28;20192;-64
2022/05/14 02:48:10;;;;;;;8.37;7.50;;;;;;;18.46;71.61;99259.88;5116324;28;20647;-64
2022/05/14 02:50:37;;;;;;;7.30;6.80;;;;;;;18.44;71.90;99267.41;5115955;28;20190;-64
2022/05/14 02:53:06;;;;;;;9.50;7.43;;;;;;;18.41;72.08;99262.50;5115893;28;20731;-64
2022/05/14 02:55:33;;;;;;;8.27;7.67;;;;;;;18.39;72.23;99269.22;5115839;28;20247;-64
2022/05/14 02:58:00;;;;;;;8.00;7.30;;;;;;;18.40;72.29;99276.19;5115692;28;20194;-64
2022/05/14 03:00:27;;;;;;;7.53;6.93;;;;;;;18.35;72.28;99260.84;5115716;28;20248;-64
2022/05/14 03:02:54;;;;;;;8.63;6.37;;;;;;;18.40;71.86;99266.28;5115682;28;20219;-64
2022/05/14 03:05:23;;;;;;;8.97;7.30;;;;;;;18.35;71.75;99268.91;5115973;28;20193;-65
2022/05/14 03:07:50;;;;;;;8.10;7.30;;;;;;;18.34;71.75;99272.63;5115612;28;20665;-64
2022/05/14 03:10:18;;;;;;;8.13;7.07;;;;;;;18.32;71.87;99269.38;5116186;28;20194;-64
2022/05/14 03:12:45;;;;;;;7.77;6.53;;;;;;;18.32;71.66;99263.16;5116075;28;20205;-64
2022/05/14 03:15:13;;;;;;;12.43;7.60;;;;;;;18.34;71.73;99261.09;5115417;28;20617;-65
2022/05/14 03:17:40;;;;;;;7.73;6.90;;;;;;;18.31;71.67;99264.25;5115446;28;20195;-65
2022/05/14 03:20:10;;;;;;;6.93;6.53;;;;;;;18.35;71.37;99262.72;5115962;28;20190;-65
2022/05/14 03:22:38;;;;;;;7.40;6.77;;;;;;;18.34;71.45;99259.19;5115203;27;20775;-65
2022/05/14 03:25:07;;;;;;;7.13;6.63;;;;;;;18.37;72.08;99260.56;5115262;28;20225;-64
2022/05/14 03:27:35;;;;;;;7.80;6.73;;;;;;;18.35;72.19;99257.31;5115446;28;20195;-64
2022/05/14 03:30:02;;;;;;;7.13;6.53;;;;;;;18.41;71.89;99261.69;5115469;27;20191;-64
2022/05/14 03:32:29;;;;;;;8.10;7.40;;;;;;;18.43;71.52;99271.16;5115037;28;20691;-64
2022/05/14 03:34:57;;;;;;;8.43;7.07;;;;;;;18.46;71.05;99281.38;5115105;28;20198;-64
2022/05/14 03:37:24;;;;;;;6.97;6.37;;;;;;;18.53;70.67;99273.13;5115297;28;20296;-64
2022/05/14 03:39:51;;;;;;;7.40;6.90;;;;;;;18.58;70.06;99268.63;5115536;28;20195;-64
2022/05/14 03:42:18;;;;;;;9.00;6.40;;;;;;;18.66;70.12;99267.38;5114873;28;20219;-64
2022/05/14 03:44:48;;;;;;;6.47;5.83;;;;;;;18.63;70.14;99257.91;5115245;28;20198;-64
2022/05/14 03:47:15;;;;;;;7.77;5.93;;;;;;;18.76;69.89;99278.22;5114873;27;20279;-64
2022/05/14 03:49:42;;;;;;;7.40;6.57;;;;;;;18.89;69.65;99270.56;5114911;28;20295;-64
2022/05/14 03:52:09;;;;;;;9.67;6.70;;;;;;;18.98;69.29;99278.97;5115098;28;20251;-64
2022/05/14 03:54:36;;;;;;;6.73;6.13;;;;;;;19.13;69.26;99288.00;5115871;28;20212;-65
2022/05/14 03:57:03;;;;;;;8.00;6.03;;;;;;;19.83;67.21;99293.13;5114723;28;20665;-64
2022/05/14 03:59:30;;;;;;;6.93;6.43;;;;;;;20.67;64.30;99300.84;5115457;28;20254;-64
2022/05/14 04:01:58;;;;;;;13.80;6.27;;;;;;;21.39;61.49;99308.81;5114500;28;20218;-66
2022/05/14 04:04:24;;;;;;;8.07;6.53;;;;;;;22.10;58.71;99321.22;5114546;28;20659;-66
2022/05/14 04:06:51;;;;;;;10.23;6.13;;;;;;;22.83;55.92;99320.38;5114735;28;20271;-66
2022/05/14 04:09:18;;;;;;;9.20;5.80;;;;;;;23.52;53.63;99322.94;5114725;28;20186;-66
2022/05/14 04:11:44;;;;;;;6.47;5.80;;;;;;;24.16;50.84;99326.94;5114434;28;20252;-65
2022/05/14 04:14:11;;;;;;;7.90;5.33;;;;;;;24.75;48.66;99332.75;5114650;28;20252;-65
2022/05/14 04:16:38;;;;;;;6.37;5.43;;;;;;;25.22;47.29;99333.72;5114597;28;20193;-65
2022/05/14 04:19:07;;;;;;;7.03;5.27;;;;;;;25.88;44.53;99339.78;5114539;28;20236;-65
2022/05/14 04:21:34;;;;;;;7.60;5.77;;;;;;;26.28;42.88;99339.03;5115207;28;20243;-65
2022/05/14 04:24:01;;;;;;;6.00;5.60;;;;;;;26.82;41.42;99344.50;5114403;28;20187;-65
2022/05/14 04:26:28;;;;;;;5.93;5.50;;;;;;;27.31;39.75;99344.53;5114483;28;20194;-65
2022/05/14 04:28:55;;;;;;;9.30;6.13;;;;;;;27.75;38.67;99347.22;5114734;28;20190;-65
2022/05/14 04:31:22;;;;;;;8.47;5.50;;;;;;;27.97;37.64;99344.53;5114527;28;20191;-65
2022/05/14 04:33:50;;;;;;;5.90;5.33;;;;;;;28.31;36.28;99350.16;5114216;28;20186;-65
2022/05/14 04:36:18;;;;;;;5.27;4.77;;;;;;;28.74;34.90;99353.84;5114134;27;20191;-65
2022/05/14 04:38:45;;;;;;;6.80;4.50;;;;;;;28.90;34.71;99336.69;5113741;28;20194;-65
2022/05/14 04:41:12;;;;;;;4.47;4.17;;;;;;;29.24;33.55;99341.44;5114052;28;20253;-65
2022/05/14 04:43:38;;;;;;;5.10;4.80;;;;;;;29.29;33.70;99349.47;5113932;28;20214;-66
2022/05/14 04:46:07;;;;;;;6.80;5.30;;;;;;;29.37;34.02;99351.41;5127985;27;20251;-66
2022/05/14 04:48:35;;;;;;;7.43;4.70;;;;;;;29.11;35.06;99350.56;5134323;27;20229;-66
2022/05/14 04:51:02;;;;;;;5.47;4.80;;;;;;;29.40;34.05;99344.47;5134609;27;20251;-66
2022/05/14 04:53:30;;;;;;;6.87;4.93;;;;;;;29.57;34.05;99339.00;5133945;27;20194;-67
2022/05/14 04:55:57;;;;;;;8.63;5.00;;;;;;;30.23;32.17;99347.44;5133951;27;20197;-65
2022/05/14 04:58:24;;;;;;;5.17;4.70;;;;;;;30.60;31.65;99348.56;5134049;27;20211;-65
2022/05/14 05:00:50;;;;;;;5.40;4.07;;;;;;;30.18;32.32;99344.88;5133692;27;20190;-65
2022/05/14 05:03:19;;;;;;;5.50;5.00;;;;;;;30.21;32.21;99343.44;5133682;27;20264;-65
2022/05/14 05:05:48;;;;;;;5.27;4.77;;;;;;;30.22;32.05;99345.84;5132533;27;20677;-65
2022/05/14 05:08:15;;;;;;;20.27;5.03;;;;;;;30.14;32.34;99354.09;5132412;27;20205;-65
2022/05/14 05:10:44;;;;;;;9.87;5.10;;;;;;;30.17;32.76;99342.47;5133818;27;20212;-64
2022/05/14 05:13:12;;;;;;;5.77;4.63;;;;;;;30.55;31.77;99349.56;5133643;27;20230;-65
2022/05/14 05:15:40;;;;;;;6.10;4.80;;;;;;;30.65;31.91;99354.66;5132899;27;20221;-65
2022/05/14 05:18:08;;;;;;;8.30;4.70;;;;;;;31.02;30.74;99348.34;5131919;27;20213;-65
2022/05/14 05:20:36;;;;;;;5.43;4.43;;;;;;;31.31;30.13;99356.53;5131777;27;20194;-65
2022/05/14 05:23:03;;;;;;;4.90;4.20;;;;;;;31.57;29.38;99351.66;5132105;27;20224;-65
2022/05/14 05:25:30;;;;;;;4.60;4.30;;;;;;;31.26;30.02;99354.00;5133457;27;20194;-65
2022/05/14 05:27:59;;;;;;;4.53;4.10;;;;;;;31.14;30.22;99356.66;5133486;27;20262;-65
2022/05/14 05:30:25;;;;;;;6.60;5.10;;;;;;;31.49;29.88;99363.53;5133474;27;20194;-64
2022/05/14 05:32:52;;;;;;;8.00;4.63;;;;;;;31.84;29.01;99356.56;5134173;27;20206;-64
2022/05/14 05:35:21;;;;;;;9.30;4.73;;;;;;;31.38;30.41;99356.00;5133363;27;20682;-64
2022/05/14 05:37:48;;;;;;;8.87;5.03;;;;;;;31.41;30.41;99356.16;5133327;27;20225;-64
2022/05/14 05:40:15;;;;;;;5.70;4.67;;;;;;;31.31;30.33;99348.31;5134157;27;20186;-64
2022/05/14 05:42:42;;;;;;;12.23;5.53;;;;;;;31.55;30.46;99351.16;5133568;27;20230;-64
2022/05/14 05:45:13;;;;;;;8.73;5.80;;;;;;;31.47;30.73;99354.78;5134086;27;20190;-64
2022/05/14 05:47:40;;;;;;;7.07;5.33;;;;;;;31.39;30.55;99352.94;5132874;27;20695;-64
2022/05/14 05:50:09;;;;;;;7.63;5.03;;;;;;;31.73;30.41;99351.81;5133186;27;20186;-64
2022/05/14 05:52:35;;;;;;;6.73;4.90;;;;;;;31.53;30.84;99325.19;5133663;27;20276;-64
2022/05/14 05:57:52;;;;;;;6.20;4.50;;;;;;;31.70;30.48;99356.06;5093711;27;20591;-65
2022/05/14 06:00:23;;;;;;;6.70;4.87;;;;;;;32.02;29.79;99360.78;5133878;27;20639;-64
2022/05/14 06:02:50;;;;;;;5.30;4.00;;;;;;;31.85;29.94;99355.44;5123117;27;20279;-64
2022/05/14 06:05:17;;;;;;;4.30;4.00;;;;;;;31.41;30.24;99364.41;5119968;27;20190;-64
2022/05/14 06:07:44;;;;;;;4.37;3.90;;;;;;;31.58;30.44;99356.00;5127764;28;20663;-65
2022/05/14 06:10:13;;;;;;;4.80;4.50;;;;;;;31.57;29.77;99359.91;5133034;27;20193;-65
2022/05/14 06:12:40;;;;;;;5.67;4.27;;;;;;;30.89;31.56;99356.81;5111830;28;20191;-65
2022/05/14 06:15:08;;;;;;;4.47;4.10;;;;;;;31.02;31.34;99351.09;5112619;28;20281;-64
2022/05/14 06:17:36;;;;;;;4.67;4.30;;;;;;;31.52;30.73;99356.53;5112481;28;20197;-64
2022/05/14 06:20:04;;;;;;;5.03;4.63;;;;;;;31.30;30.44;99349.44;5123701;28;20667;-64
2022/05/14 06:22:31;;;;;;;4.77;4.37;;;;;;;31.20;30.96;99357.25;5132570;27;20699;-64
2022/05/14 06:24:58;;;;;;;12.47;4.60;;;;;;;31.29;30.45;99364.31;5133005;27;20259;-64
2022/05/14 06:27:25;;;;;;;5.73;4.50;;;;;;;31.30;30.43;99368.66;5132974;27;20223;-64
2022/05/14 06:29:52;;;;;;;5.50;4.60;;;;;;;31.46;30.52;99364.19;5132693;27;20575;-64
2022/05/14 06:32:18;;;;;;;4.30;3.90;;;;;;;31.60;30.20;99370.19;5132799;27;20194;-62
2022/05/14 06:34:46;;;;;;;4.50;4.10;;;;;;;31.77;30.16;99364.56;5132672;27;20190;-62
2022/05/14 06:37:13;;;;;;;8.37;3.93;;;;;;;31.89;30.44;99370.09;5120441;27;20187;-63
2022/05/14 06:39:40;;;;;;;4.60;4.00;;;;;;;31.57;31.05;99370.88;5112701;28;20197;-63
2022/05/14 06:42:08;;;;;;;5.10;4.60;;;;;;;31.54;30.28;99368.81;5112429;28;20195;-64
2022/05/14 06:44:34;;;;;;;5.00;4.70;;;;;;;31.48;31.15;99370.13;5112035;28;20667;-63
2022/05/14 06:47:01;;;;;;;4.70;4.30;;;;;;;31.34;30.90;99360.56;5112015;28;20664;-63
2022/05/14 06:49:28;;;;;;;5.83;4.47;;;;;;;31.18;32.17;99362.25;5111789;28;20222;-64
2022/05/14 06:51:59;;;;;;;21.47;5.40;;;;;;;31.32;31.57;99366.38;5111709;28;20198;-64
2022/05/14 06:54:26;;;;;;;8.23;4.03;;;;;;;31.61;31.80;99363.53;5111523;28;20244;-64
2022/05/14 06:56:53;;;;;;;5.03;4.33;;;;;;;31.86;31.25;99367.22;5111280;28;20228;-63
2022/05/14 06:59:20;;;;;;;6.43;4.07;;;;;;;32.11;30.46;99375.22;5111626;28;20282;-64
2022/05/14 07:01:48;;;;;;;5.50;5.10;;;;;;;32.04;30.62;99374.16;5111458;28;20236;-64
2022/05/14 07:07:05;;;;;;;6.77;3.83;;;;;;;32.17;30.10;99373.84;5112070;28;20235;-64
2022/05/14 07:09:33;;;;;;;4.90;4.50;;;;;;;32.14;30.22;99380.00;5111634;28;20198;-63
2022/05/14 07:12:03;;;;;;;4.70;3.80;;;;;;;32.28;30.20;99368.69;5129739;28;20318;-63
2022/05/14 07:14:31;;;;;;;16.27;5.93;;;;;;;32.59;30.48;99369.78;5132404;27;20196;-64
2022/05/14 07:16:58;;;;;;;15.27;4.40;;;;;;;32.08;31.38;99375.88;5133228;27;20195;-64
2022/05/14 07:19:25;;;;;;;5.57;4.60;;;;;;;31.95;31.93;99365.19;5132125;27;20322;-64
2022/05/14 07:21:54;;;;;;;5.80;4.90;;;;;;;31.75;32.04;99369.56;5132823;27;20194;-64
2022/05/14 07:24:25;;;;;;;16.67;4.90;;;;;;;31.85;32.09;99369.16;5135805;27;20684;-64
2022/05/14 07:26:54;;;;;;;4.47;4.17;;;;;;;32.21;31.38;99377.50;5135750;27;20186;-64
2022/05/14 07:29:23;;;;;;;4.40;4.00;;;;;;;32.51;30.86;99367.94;5135130;27;20194;-64
2022/05/14 07:31:51;;;;;;;5.80;4.37;;;;;;;32.78;30.74;99370.03;5135945;27;20190;-63
2022/05/14 07:34:18;;;;;;;5.00;4.60;;;;;;;32.89;29.95;99373.16;5135525;27;20198;-64
2022/05/14 07:36:49;;;;;;;14.73;5.07;;;;;;;32.82;30.46;99379.22;5135899;27;20194;-64
2022/05/14 07:39:18;;;;;;;10.63;4.67;;;;;;;32.39;30.49;99381.72;5135846;27;20190;-64
2022/05/14 07:41:49;;;;;;;9.67;4.30;;;;;;;31.87;31.47;99372.41;5135409;27;20190;-64
2022/05/14 07:44:18;;;;;;;5.00;4.60;;;;;;;32.44;30.91;99384.25;5135289;27;20589;-64
2022/05/14 07:46:49;;;;;;;4.97;4.53;;;;;;;32.32;30.76;99381.47;5135235;27;20193;-64
2022/05/14 07:49:17;;;;;;;10.20;4.50;;;;;;;32.51;30.44;99378.94;5135808;27;20222;-64
2022/05/14 07:51:44;;;;;;;10.07;4.30;;;;;;;32.54;29.68;99381.03;5135114;27;20571;-64
2022/05/14 07:54:11;;;;;;;19.37;5.27;;;;;;;33.10;28.23;99380.13;5134909;27;20667;-64
2022/05/14 07:56:39;;;;;;;4.30;4.00;;;;;;;33.70;27.93;99381.94;5135476;27;20190;-64
2022/05/14 07:59:07;;;;;;;12.02;4.20;;;;;;;33.12;28.73;99385.28;5135141;27;20571;-63
2022/05/14 08:01:34;;;;;;;9.65;4.30;;;;;;;33.33;27.63;99394.22;5135326;27;20190;-64
2022/05/14 08:04:01;;;;;;;5.78;4.00;;;;;;;32.68;28.83;99398.03;5134798;27;20218;-64
2022/05/14 08:06:28;;;;;;;10.83;4.83;;;;;;;32.57;28.85;99405.09;5135362;27;20194;-64
2022/05/14 08:08:55;;;;;;;7.10;4.50;;;;;;;32.49;28.99;99408.75;5135254;27;20189;-64
2022/05/14 08:11:22;;;;;;;7.60;4.80;;;;;;;31.94;30.07;99405.63;5122512;27;20252;-64
2022/05/14 08:13:50;;;;;;;8.17;4.37;;;;;;;31.72;30.36;99403.22;5113957;28;20190;-63
2022/05/14 08:16:19;;;;;;;8.07;5.80;;;;;;;31.17;31.75;99410.88;5114521;28;20190;-63
2022/05/14 08:18:45;;;;;;;10.07;5.30;;;;;;;31.15;32.27;99409.63;5114939;28;20243;-63
2022/05/14 08:26:49;;;;;;;7.37;5.00;;;;;;;30.34;33.87;99395.28;5103614;28;20233;-64
2022/05/14 08:29:16;;;;;;;15.87;5.20;;;;;;;30.07;34.49;99403.06;5114446;28;20182;-64
2022/05/14 08:31:44;;;;;;;6.73;4.87;;;;;;;29.74;35.20;99407.47;5114260;28;20255;-64
2022/05/14 08:34:10;;;;;;;6.30;4.63;;;;;;;29.42;36.06;99408.72;5113041;28;20199;-64
2022/05/14 08:36:38;;;;;;;6.07;5.43;;;;;;;29.32;37.17;99419.19;5113950;28;20247;-64
2022/05/14 08:39:05;;;;;;;7.60;5.63;;;;;;;29.48;37.12;99418.38;5114027;28;20206;-64
2022/05/14 08:41:36;;;;;;;5.10;4.70;;;;;;;29.59;37.23;99425.19;5114370;28;20213;-64
2022/05/14 08:44:07;;;;;;;9.10;5.10;;;;;;;29.39;38.14;99434.00;5113361;28;20210;-63
2022/05/14 08:46:38;;;;;;;9.23;5.13;;;;;;;29.53;37.93;99431.13;5113599;28;20240;-63
2022/05/14 08:49:10;;;;;;;5.27;4.77;;;;;;;29.29;38.00;99442.53;5114134;28;20218;-64
2022/05/14 08:51:43;;;;;;;11.20;5.63;;;;;;;29.20;38.01;99438.97;5113838;28;20190;-63
2022/05/14 08:54:10;;;;;;;7.77;5.47;;;;;;;29.11;37.86;99451.81;5113909;28;20247;-63
2022/05/14 08:56:43;;;;;;;8.03;5.57;;;;;;;29.01;37.69;99457.59;5114272;28;20187;-64
2022/05/14 08:59:36;;;;;;;10.37;5.57;;;;;;;28.87;37.88;99462.34;5113820;28;20183;-64
2022/05/14 09:02:15;;;;;;;14.63;6.33;;;;;;;28.86;37.97;99468.91;5113669;27;20208;-64
2022/05/14 09:04:44;;;;;;;7.80;5.23;;;;;;;28.71;37.78;99474.81;5113154;28;20691;-63
2022/05/14 09:07:12;;;;;;;16.93;5.57;;;;;;;28.59;39.12;99483.59;5113409;28;20269;-64
2022/05/14 09:09:49;;;;;;;5.70;5.10;;;;;;;28.59;39.01;99493.75;5113017;28;20576;-64
2022/05/14 09:12:19;;;;;;;5.20;4.37;;;;;;;28.51;39.51;99494.50;5132985;27;20642;-64
2022/05/14 09:14:46;;;;;;;7.57;4.93;;;;;;;28.45;39.84;99498.47;5133725;27;20650;-64
2022/05/14 09:17:21;;;;;;;5.93;4.60;;;;;;;28.31;39.30;99497.72;5133669;27;20190;-64
2022/05/14 09:19:50;;;;;;;8.17;4.10;;;;;;;28.06;39.60;99501.84;5133652;27;20185;-64
2022/05/14 09:22:27;;;;;;;9.83;4.10;;;;;;;27.85;39.24;99502.66;5134357;27;20189;-64
2022/05/14 09:25:02;;;;;;;10.80;4.97;;;;;;;27.43;39.83;99503.03;5134248;27;20258;-65
2022/05/14 09:27:39;;;;;;;9.07;4.13;;;;;;;26.90;40.69;99501.94;5133908;27;20188;-64
2022/05/14 09:30:10;;;;;;;4.10;3.90;;;;;;;26.52;39.97;99486.78;5133374;27;20647;-64
2022/05/14 09:32:42;;;;;;;7.33;4.23;;;;;;;26.55;40.55;99508.81;5132869;27;20678;-64
2022/05/14 09:35:14;;;;;;;4.80;4.27;;;;;;;26.66;40.77;99501.28;5133000;27;20194;-64
2022/05/14 09:37:42;;;;;;;7.37;4.23;;;;;;;26.74;40.24;99501.38;5133253;27;20190;-64
2022/05/14 09:40:13;;;;;;;4.83;4.10;;;;;;;26.62;40.95;99503.00;5133153;27;20725;-64
2022/05/14 09:42:44;;;;;;;3.90;3.60;;;;;;;26.37;42.15;99496.03;5134312;27;20239;-64
2022/05/14 09:45:22;;;;;;;10.60;4.93;;;;;;;26.33;43.29;99488.78;5132779;27;20282;-63
2022/05/14 09:47:49;;;;;;;12.60;4.17;;;;;;;25.86;47.08;99494.41;5132556;27;20266;-64
2022/05/14 09:50:20;;;;;;;10.27;4.20;;;;;;;26.03;48.20;99495.53;5133135;27;20189;-63
2022/05/14 09:52:56;;;;;;;7.10;4.60;;;;;;;25.70;50.44;99495.72;5133396;27;20609;-63
2022/05/14 09:55:32;;;;;;;4.33;3.87;;;;;;;25.46;51.69;99494.97;5133069;27;20266;-64
2022/05/14 09:58:06;;;;;;;8.27;4.50;;;;;;;25.11;54.73;99496.19;5132814;27;20190;-63
2022/05/14 10:00:39;;;;;;;5.97;4.00;;;;;;;25.34;54.66;99500.03;5132872;27;20240;-63
2022/05/14 10:03:23;;;;;;;9.47;4.80;;;;;;;25.45;55.06;99502.34;5132971;27;20192;-65
2022/05/14 10:05:59;;;;;;;7.90;4.37;;;;;;;25.39;56.52;99508.16;5132972;27;20239;-63
2022/05/14 10:08:41;;;;;;;6.77;4.40;;;;;;;25.58;58.21;99492.63;5133952;27;20220;-63
2022/05/14 10:11:13;;;;;;;23.27;5.07;;;;;;;25.70;59.39;99493.81;5122324;27;20644;-63
2022/05/14 10:13:51;;;;;;;9.10;4.60;;;;;;;25.79;61.14;99483.06;5112872;28;20614;-63
2022/05/14 10:16:24;;;;;;;12.10;5.50;;;;;;;25.91;60.48;99486.16;5111268;28;20186;-65
2022/05/14 10:19:11;;;;;;;5.50;4.97;;;;;;;25.98;56.87;99482.00;5111953;28;20652;-64
2022/05/14 10:21:50;;;;;;;5.40;4.07;;;;;;;25.65;55.55;99474.84;5111606;28;20186;-64
2022/05/14 10:27:37;;;;;;;11.77;5.30;;;;;;;24.44;59.49;99451.00;5112674;28;20178;-64
2022/05/14 10:30:15;;;;;;;4.70;4.40;;;;;;;23.92;61.30;99459.06;5112573;28;20224;-64
2022/05/14 10:32:44;;;;;;;5.00;4.50;;;;;;;23.55;62.96;99472.31;5112338;28;20273;-64
2022/05/14 10:35:18;;;;;;;4.77;4.33;;;;;;;23.46;65.10;99484.03;5111674;28;20752;-64
2022/05/14 10:37:51;;;;;;;5.13;4.63;;;;;;;23.56;64.43;99490.22;5112648;28;20275;-65
2022/05/14 10:40:22;;;;;;;5.07;4.57;;;;;;;23.55;65.46;99495.91;5111250;28;20180;-64
2022/05/14 10:43:09;;;;;;;5.27;4.60;;;;;;;23.77;66.19;99505.25;5111987;28;20234;-64
2022/05/14 10:45:41;;;;;;;7.83;4.40;;;;;;;24.13;63.61;99511.31;5110614;28;20247;-64
2022/05/14 10:48:17;;;;;;;6.77;5.03;;;;;;;24.56;62.67;99524.78;5111363;28;20218;-65
2022/05/14 10:50:44;;;;;;;27.83;6.73;;;;;;;24.73;62.74;99518.91;5111565;28;20642;-65
2022/05/14 10:53:13;;;;;;;6.10;5.07;;;;;;;24.93;62.23;99516.00;5111260;28;20198;-66
2022/05/14 10:55:49;;;;;;;10.47;4.83;;;;;;;25.20;57.40;99518.13;5111048;28;20578;-67
2022/05/14 10:58:35;;;;;;;10.60;5.00;;;;;;;25.05;59.81;99510.97;5153367;27;20196;-67
2022/05/14 11:01:02;;;;;;;4.30;3.90;;;;;;;25.02;58.78;99510.75;5156735;27;20277;-66
2022/05/14 11:03:36;;;;;;;5.80;3.80;;;;;;;25.25;57.24;99520.78;5135137;27;20202;-66
2022/05/14 11:06:13;;;;;;;3.70;3.47;;;;;;;25.20;57.01;99513.50;5117094;27;20575;-67
2022/05/14 11:08:45;;;;;;;3.23;3.07;;;;;;;25.21;55.36;99511.59;5136743;27;20247;-69
2022/05/14 11:11:17;;;;;;;7.27;3.37;;;;;;;24.91;55.99;99510.84;5125030;27;20232;-69
2022/05/14 11:14:01;;;;;;;3.50;3.30;;;;;;;25.06;56.04;99503.63;5114912;28;20603;-68
2022/05/14 11:16:43;;;;;;;7.67;3.57;;;;;;;25.65;54.64;99506.69;5114563;27;20237;-67
2022/05/14 11:19:11;;;;;;;6.10;3.60;;;;;;;25.85;53.77;99506.41;5115932;28;20179;-67
2022/05/14 11:21:40;;;;;;;6.17;4.00;;;;;;;26.03;53.00;99497.41;5115501;28;20194;-68
2022/05/14 11:24:11;;;;;;;6.63;4.40;;;;;;;26.27;51.86;99500.84;5115778;28;20279;-68
2022/05/14 11:26:47;;;;;;;5.27;4.40;;;;;;;25.91;54.74;99491.59;5115912;28;20187;-67
2022/05/14 11:29:18;;;;;;;4.03;3.73;;;;;;;26.03;54.10;99478.38;5114239;28;20650;-71
2022/05/14 11:31:53;;;;;;;4.73;4.33;;;;;;;26.06;53.58;99481.31;5115060;28;20244;-69
2022/05/14 11:34:24;;;;;;;7.13;4.67;;;;;;;25.41;57.18;99465.13;5115164;27;20186;-69
2022/05/14 11:36:52;;;;;;;6.87;5.77;;;;;;;25.51;56.33;99470.44;5115489;28;20236;-70
2022/05/14 11:39:28;;;;;;;7.20;5.17;;;;;;;25.72;56.99;99458.94;5115535;28;20572;-69
2022/05/14 11:42:09;;;;;;;5.30;4.73;;;;;;;25.32;57.51;99472.31;5114917;28;20199;-68
2022/05/14 11:44:45;;;;;;;7.40;4.83;;;;;;;25.68;55.71;99457.13;5115525;28;20211;-68
2022/05/14 11:47:39;;;;;;;5.73;5.03;;;;;;;25.32;57.26;99456.00;5114769;28;20182;-68
2022/05/14 11:50:07;;;;;;;5.20;4.87;;;;;;;25.25;58.30;99447.34;5115140;28;20190;-68
2022/05/14 11:52:41;;;;;;;13.53;5.27;;;;;;;25.19;58.27;99451.25;5115134;28;20190;-67
2022/05/14 11:55:14;;;;;;;23.73;6.10;;;;;;;25.35;58.25;99450.00;5114997;27;20187;-67
2022/05/14 11:57:45;;;;;;;9.17;5.53;;;;;;;25.36;59.61;99441.53;5118460;27;20666;-68
2022/05/14 12:00:16;;;;;;;5.93;5.40;;;;;;;25.26;59.89;99438.09;5135794;27;20294;-67
2022/05/14 12:02:48;;;;;;;7.40;5.37;;;;;;;24.94;60.08;99427.91;5134833;27;20194;-67